Time;durP1;ratioP1;P1;durP2;ratioP2;P2;SDS_P1;SDS_P2;PMS_P1;PMS_P2;Temp;Humidity;BMP_temperature;BMP_pressure;BME280_temperature;BME280_humidity;BME280_pressure;Samples;Min_cycle;Max_cycle;Signal;HPM_P1;HPM_P2
2023/10/21 00:00:14;;;;;;;10.68;2.10;;;18.00;99.60;;;;;;7388643;19;19999;-79
2023/10/21 00:02:43;;;;;;;5.13;1.90;;;18.00;99.70;;;;;;7385683;19;20103;-80
2023/10/21 00:05:12;;;;;;;4.13;1.58;;;18.00;99.50;;;;;;7405497;19;20007;-79
2023/10/21 00:07:41;;;;;;;9.00;1.75;;;17.70;99.50;;;;;;7385003;19;20010;-79
2023/10/21 00:10:12;;;;;;;3.50;1.30;;;17.50;99.60;;;;;;7386051;19;20006;-79
2023/10/21 00:12:42;;;;;;;3.30;1.33;;;17.60;99.90;;;;;;7384185;19;20047;-80
2023/10/21 00:15:11;;;;;;;6.38;1.25;;;17.30;99.80;;;;;;7385370;19;20010;-79
2023/10/21 00:17:41;;;;;;;2.25;1.02;;;17.30;99.90;;;;;;7385542;19;20037;-80
2023/10/21 00:20:42;;;;;;;3.22;0.90;;;17.00;99.80;;;;;;7405665;19;20469;-80
2023/10/21 00:23:11;;;;;;;4.68;0.32;;;17.10;99.60;;;;;;7383090;19;20003;-80
2023/10/21 00:25:42;;;;;;;0.70;0.50;;;17.00;99.70;;;;;;7382865;19;20377;-80
2023/10/21 00:28:11;;;;;;;;;;;17.00;99.00;;;;;;7384352;19;20045;-80
2023/10/21 00:30:40;;;;;;;1.42;0.47;;;16.30;99.50;;;;;;7383092;19;19918;-80
2023/10/21 00:33:09;;;;;;;0.57;0.45;;;16.40;99.80;;;;;;7383810;19;20007;-80
2023/10/21 00:35:39;;;;;;;1.75;0.40;;;16.60;99.40;;;;;;7384542;19;20014;-80
2023/10/21 00:38:08;;;;;;;1.73;0.40;;;16.70;99.20;;;;;;7404274;19;20017;-80
2023/10/21 00:40:37;;;;;;;3.65;0.55;;;16.70;99.20;;;;;;7383125;19;20249;-79
2023/10/21 00:43:10;;;;;;;7.10;0.70;;;16.80;99.10;;;;;;7383665;19;20002;-80
2023/10/21 00:45:39;;;;;;;3.00;0.40;;;16.90;99.00;;;;;;7385406;19;20085;-80
2023/10/21 00:48:08;;;;;;;3.35;0.30;;;16.90;98.50;;;;;;7383096;19;20002;-80
2023/10/21 00:50:37;;;;;;;4.28;0.50;;;16.90;98.60;;;;;;7381669;19;20011;-80
2023/10/21 00:53:06;;;;;;;4.85;0.90;;;16.70;98.60;;;;;;7403444;19;20002;-80
2023/10/21 00:55:35;;;;;;;5.38;0.50;;;16.70;98.80;;;;;;7379298;19;19999;-78
2023/10/21 00:58:04;;;;;;;6.50;0.70;;;16.70;98.80;;;;;;7385486;19;20007;-79
2023/10/21 01:00:35;;;;;;;2.50;0.57;;;16.80;98.70;;;;;;7382970;19;20010;-79
2023/10/21 01:03:04;;;;;;;;;;;16.70;98.70;;;;;;7383717;19;20002;-80
2023/10/21 01:05:33;;;;;;;2.05;0.77;;;16.70;98.60;;;;;;7382709;19;19924;-79
2023/10/21 01:08:01;;;;;;;4.32;1.48;;;16.80;98.50;;;;;;7407355;19;20021;-79
2023/10/21 01:10:30;;;;;;;2.42;0.40;;;17.00;98.20;;;;;;7383988;19;20112;-80
2023/10/21 01:12:59;;;;;;;5.97;0.70;;;17.00;98.00;;;;;;7385814;19;20349;-79
2023/10/21 01:15:28;;;;;;;2.70;0.52;;;17.10;97.80;;;;;;7386826;19;20033;-79
2023/10/21 01:17:59;;;;;;;3.08;0.60;;;17.10;97.40;;;;;;7382658;19;20026;-79
2023/10/21 01:20:28;;;;;;;2.92;0.70;;;16.80;97.10;;;;;;7401796;19;20014;-80
2023/10/21 01:22:59;;;;;;;4.47;0.70;;;16.70;97.00;;;;;;7380801;19;20014;-79
2023/10/21 01:25:32;;;;;;;3.00;0.77;;;16.80;97.10;;;;;;7380555;19;20010;-79
2023/10/21 01:28:01;;;;;;;6.80;0.80;;;16.90;97.00;;;;;;7379679;19;20006;-79
2023/10/21 01:30:30;;;;;;;5.03;0.70;;;16.90;96.90;;;;;;7378127;19;20029;-79
2023/10/21 01:33:01;;;;;;;1.48;0.57;;;17.00;96.90;;;;;;7377418;19;20367;-79
2023/10/21 01:35:30;;;;;;;;;;;16.60;96.90;;;;;;7401341;19;20030;-79
2023/10/21 01:37:59;;;;;;;6.22;0.60;;;16.70;97.30;;;;;;7379990;19;20219;-78
2023/10/21 01:40:30;;;;;;;9.63;0.77;;;16.90;97.20;;;;;;7379719;19;20094;-78
2023/10/21 01:42:59;;;;;;;5.57;0.70;;;16.80;97.10;;;;;;7380827;19;20010;-79
2023/10/21 01:45:28;;;;;;;4.53;0.95;;;16.90;97.30;;;;;;7379645;19;20003;-79
2023/10/21 01:47:56;;;;;;;2.33;0.70;;;16.50;97.60;;;;;;7380403;19;20035;-78
2023/10/21 01:50:25;;;;;;;1.95;0.70;;;16.50;97.80;;;;;;7400080;19;20002;-78
2023/10/21 01:52:54;;;;;;;8.18;0.95;;;16.70;98.10;;;;;;7378853;19;20015;-78
2023/10/21 01:55:25;;;;;;;2.58;0.75;;;16.80;97.80;;;;;;7380196;19;20070;-79
2023/10/21 01:57:57;;;;;;;;;;;16.80;97.30;;;;;;7380856;19;20011;-78
2023/10/21 02:00:25;;;;;;;2.40;0.80;;;16.40;97.10;;;;;;7380066;19;19950;-78
2023/10/21 02:02:56;;;;;;;2.83;0.73;;;16.40;97.20;;;;;;7379414;19;20007;-79
2023/10/21 02:05:26;;;;;;;5.27;1.03;;;16.10;97.50;;;;;;7401181;19;20015;-79
2023/10/21 02:07:55;;;;;;;5.95;1.10;;;15.80;98.00;;;;;;7379827;19;20002;-79
2023/10/21 02:10:24;;;;;;;0.93;0.60;;;15.90;97.90;;;;;;7380391;19;20676;-79
2023/10/21 02:12:53;;;;;;;9.13;1.35;;;15.80;97.70;;;;;;7379273;19;20006;-78
2023/10/21 02:15:24;;;;;;;6.45;1.08;;;16.10;97.60;;;;;;7379877;19;20023;-78
2023/10/21 02:17:53;;;;;;;9.00;1.30;;;16.10;97.30;;;;;;7380041;19;20042;-79
2023/10/21 02:20:21;;;;;;;7.60;0.93;;;16.00;97.00;;;;;;7400725;19;20679;-78
2023/10/21 02:22:50;;;;;;;10.40;1.20;;;16.00;97.00;;;;;;7379078;19;20020;-78
2023/10/21 02:25:19;;;;;;;3.70;1.08;;;16.10;97.10;;;;;;7378876;19;20006;-79
2023/10/21 02:27:48;;;;;;;7.60;0.93;;;16.20;97.00;;;;;;7379827;19;20034;-79
2023/10/21 02:30:18;;;;;;;4.50;1.20;;;16.10;96.30;;;;;;7382656;19;20010;-79
2023/10/21 02:32:51;;;;;;;6.13;1.10;;;16.10;96.70;;;;;;7378494;19;20003;-79
2023/10/21 02:35:20;;;;;;;6.38;1.30;;;16.30;96.50;;;;;;7398841;19;20050;-79
2023/10/21 02:37:50;;;;;;;5.70;1.38;;;16.10;96.40;;;;;;7378092;19;20014;-80
2023/10/21 02:40:18;;;;;;;4.82;1.10;;;16.20;96.50;;;;;;7377124;19;20020;-79
2023/10/21 02:42:47;;;;;;;7.35;1.42;;;16.20;96.40;;;;;;7377686;19;20381;-79
2023/10/21 02:45:16;;;;;;;13.80;1.90;;;16.20;96.40;;;;;;7378322;19;20010;-80
2023/10/21 02:47:45;;;;;;;10.95;1.42;;;16.30;96.10;;;;;;7377741;19;19999;-80
2023/10/21 02:50:16;;;;;;;7.72;1.35;;;16.40;96.10;;;;;;7399227;19;20009;-79
2023/10/21 02:52:45;;;;;;;6.20;1.80;;;16.40;95.70;;;;;;7381015;19;20054;-79
2023/10/21 02:55:14;;;;;;;5.57;1.30;;;16.30;95.90;;;;;;7377634;19;20007;-79
2023/10/21 02:57:44;;;;;;;8.70;1.35;;;16.40;96.20;;;;;;7378884;19;20011;-79
2023/10/21 03:00:15;;;;;;;7.22;1.55;;;16.30;95.90;;;;;;7378588;19;20621;-79
2023/10/21 03:02:44;;;;;;;5.68;1.67;;;16.10;96.10;;;;;;7376834;19;20022;-78
2023/10/21 03:05:16;;;;;;;10.82;1.45;;;16.00;96.40;;;;;;7397216;19;20014;-80
2023/10/21 03:07:45;;;;;;;13.00;2.17;;;16.10;96.50;;;;;;7377191;19;20011;-79
2023/10/21 03:10:14;;;;;;;13.30;1.88;;;16.20;96.30;;;;;;7378760;19;20016;-79
2023/10/21 03:12:44;;;;;;;8.70;1.45;;;16.00;96.20;;;;;;7377260;19;20006;-80
2023/10/21 03:15:13;;;;;;;9.65;1.75;;;16.00;96.30;;;;;;7376471;19;20562;-79
2023/10/21 03:17:42;;;;;;;10.90;1.75;;;16.10;96.20;;;;;;7377242;19;20007;-79
2023/10/21 03:20:12;;;;;;;10.43;1.85;;;15.80;96.50;;;;;;7404942;19;19998;-79
2023/10/21 03:22:43;;;;;;;6.85;1.70;;;16.00;96.70;;;;;;7387525;19;20006;-79
2023/10/21 03:25:12;;;;;;;;;;;16.20;96.40;;;;;;7389343;19;20027;-80
2023/10/21 03:27:41;;;;;;;7.32;1.40;;;16.30;96.20;;;;;;7392464;19;19957;-79
2023/10/21 03:30:11;;;;;;;7.97;1.65;;;16.20;96.00;;;;;;7391896;19;20038;-79
2023/10/21 03:32:40;;;;;;;13.48;1.95;;;16.10;96.00;;;;;;7387238;19;20003;-79
2023/10/21 03:35:16;;;;;;;9.90;1.80;;;16.00;96.60;;;;;;7406408;19;20366;-80
2023/10/21 03:37:47;;;;;;;11.75;1.50;;;16.00;96.20;;;;;;7384744;19;20388;-80
2023/10/21 03:40:17;;;;;;;7.82;1.83;;;15.80;96.40;;;;;;7384567;19;20075;-79
2023/10/21 03:42:46;;;;;;;15.43;1.75;;;15.80;96.80;;;;;;7384608;19;20017;-81
2023/10/21 03:45:15;;;;;;;21.20;2.20;;;15.60;96.60;;;;;;7385208;19;20367;-79
2023/10/21 03:47:44;;;;;;;9.90;1.40;;;15.80;96.60;;;;;;7381974;19;20013;-79
2023/10/21 03:50:13;;;;;;;10.15;1.95;;;15.70;96.20;;;;;;7405803;19;20015;-80
2023/10/21 03:52:42;;;;;;;14.05;1.83;;;15.80;96.40;;;;;;7383086;19;20080;-79
2023/10/21 03:55:13;;;;;;;7.97;1.50;;;15.80;96.50;;;;;;7383860;19;20010;-78
2023/10/21 03:57:42;;;;;;;;;;;16.00;96.30;;;;;;7384341;19;20250;-80
2023/10/21 04:00:16;;;;;;;12.38;1.40;;;16.10;95.80;;;;;;7382989;19;19913;-81
2023/10/21 04:02:45;;;;;;;12.10;1.35;;;16.10;95.60;;;;;;7383183;19;19999;-80
2023/10/21 04:05:20;;;;;;;13.65;1.65;;;16.10;95.60;;;;;;7407122;19;20011;-81
2023/10/21 04:08:05;;;;;;;10.90;1.70;;;15.90;95.50;;;;;;7386682;19;20003;-80
2023/10/21 04:10:40;;;;;;;12.05;1.55;;;15.70;95.80;;;;;;7383402;19;20017;-80
2023/10/21 04:13:17;;;;;;;7.32;1.02;;;15.70;96.10;;;;;;7382630;19;20013;-81
2023/10/21 04:15:50;;;;;;;12.02;1.58;;;15.80;96.20;;;;;;7384161;19;20013;-81
2023/10/21 04:18:27;;;;;;;6.72;1.60;;;15.90;96.10;;;;;;7385013;19;20025;-80
2023/10/21 04:21:20;;;;;;;12.90;1.83;;;15.80;96.00;;;;;;7385122;19;20035;-82
2023/10/21 04:30:16;;;;;;;5.63;1.27;;;15.70;96.40;;;;;;7401709;19;20263;-82
2023/10/21 04:33:02;;;;;;;7.53;1.00;;;15.80;96.30;;;;;;7380872;19;20009;-82
2023/10/21 04:35:32;;;;;;;10.45;1.45;;;15.80;96.50;;;;;;7401022;19;20082;-79
2023/10/21 04:38:06;;;;;;;11.38;1.75;;;15.90;96.40;;;;;;7383706;19;20043;-81
2023/10/21 04:40:46;;;;;;;11.38;1.27;;;16.00;96.20;;;;;;7379270;19;20023;-80
2023/10/21 04:45:59;;;;;;;18.17;1.73;;;15.70;96.40;;;;;;7402398;19;20062;-80
2023/10/21 04:48:33;;;;;;;11.60;2.03;;;16.00;96.30;;;;;;7379964;19;20010;-79
2023/10/21 04:54:25;;;;;;;18.20;1.73;;;15.80;96.30;;;;;;7382817;19;20002;-82
2023/10/21 04:57:12;;;;;;;4.43;1.55;;;16.00;96.20;;;;;;7382352;19;20013;-82
2023/10/21 04:59:45;;;;;;;8.63;1.73;;;16.20;96.10;;;;;;7379719;19;20043;-79
2023/10/21 05:05:17;;;;;;;13.73;2.10;;;16.00;96.00;;;;;;7387854;19;20014;-79
2023/10/21 05:07:46;;;;;;;;;;;15.90;96.10;;;;;;7390528;19;20062;-80
2023/10/21 05:10:18;;;;;;;10.00;1.45;;;15.80;96.40;;;;;;7382956;19;19914;-80
2023/10/21 05:12:49;;;;;;;14.65;1.85;;;16.00;96.30;;;;;;7380789;19;20382;-80
2023/10/21 05:15:18;;;;;;;16.70;1.90;;;16.10;96.20;;;;;;7382357;19;20019;-80
2023/10/21 05:17:47;;;;;;;16.52;2.10;;;15.90;96.20;;;;;;7383892;19;20028;-79
2023/10/21 05:20:19;;;;;;;13.40;1.83;;;15.80;96.50;;;;;;7406726;19;20006;-80
2023/10/21 05:22:48;;;;;;;16.52;2.13;;;16.00;96.30;;;;;;7388172;19;20010;-80
2023/10/21 05:25:17;;;;;;;13.98;1.80;;;16.10;95.90;;;;;;7387939;19;20031;-79
2023/10/21 05:27:46;;;;;;;15.65;1.80;;;15.80;96.50;;;;;;7387016;19;20011;-79
2023/10/21 05:30:17;;;;;;;17.17;2.10;;;16.10;96.10;;;;;;7387438;19;20477;-80
2023/10/21 05:32:46;;;;;;;25.95;2.47;;;16.10;96.00;;;;;;7389649;19;20007;-80
2023/10/21 05:35:15;;;;;;;24.23;2.38;;;15.90;96.10;;;;;;7410522;19;20010;-80
2023/10/21 05:37:46;;;;;;;14.65;2.83;;;16.10;96.10;;;;;;7390180;19;20003;-79
2023/10/21 05:40:15;;;;;;;;;;;16.20;95.90;;;;;;7389593;19;20007;-80
2023/10/21 05:42:43;;;;;;;14.02;2.53;;;15.90;95.90;;;;;;7390363;19;19910;-79
2023/10/21 05:45:13;;;;;;;16.83;2.63;;;15.80;96.00;;;;;;7391200;19;20013;-79
2023/10/21 05:47:41;;;;;;;16.23;2.58;;;15.70;96.20;;;;;;7394967;19;20011;-80
2023/10/21 05:50:11;;;;;;;32.70;2.95;;;15.50;96.30;;;;;;7418399;19;20034;-79
2023/10/21 05:52:39;;;;;;;11.20;2.30;;;15.70;96.50;;;;;;7396277;19;20002;-79
2023/10/21 05:55:12;;;;;;;10.95;2.10;;;15.90;96.60;;;;;;7398487;19;20015;-79
2023/10/21 05:57:42;;;;;;;13.18;2.30;;;15.90;96.00;;;;;;7394328;19;20015;-78
2023/10/21 06:00:13;;;;;;;33.47;2.35;;;15.90;96.10;;;;;;7388766;19;20063;-79
2023/10/21 06:02:42;;;;;;;20.55;2.78;;;16.10;96.10;;;;;;7388386;19;20003;-79
2023/10/21 06:05:12;;;;;;;21.25;2.28;;;16.10;95.90;;;;;;7409659;19;20211;-79
2023/10/21 06:07:41;;;;;;;12.68;2.28;;;16.10;95.70;;;;;;7388266;19;20041;-79
2023/10/21 06:10:13;;;;;;;11.23;2.30;;;16.10;95.80;;;;;;7386318;19;20236;-79
2023/10/21 06:12:43;;;;;;;17.27;3.00;;;16.10;95.90;;;;;;7383919;19;20006;-79
2023/10/21 06:15:12;;;;;;;17.90;2.97;;;16.10;95.80;;;;;;7382242;19;20010;-79
2023/10/21 06:17:41;;;;;;;14.35;2.53;;;16.20;95.80;;;;;;7381958;19;20003;-79
2023/10/21 06:20:11;;;;;;;20.85;3.15;;;15.80;95.70;;;;;;7407126;19;20002;-79
2023/10/21 06:22:40;;;;;;;31.10;3.58;;;16.00;95.90;;;;;;7387428;19;20003;-80
2023/10/21 06:25:10;;;;;;;20.63;3.30;;;16.10;95.70;;;;;;7387952;19;20030;-79
2023/10/21 06:27:41;;;;;;;20.80;2.85;;;16.10;95.30;;;;;;7386478;19;20023;-79
2023/10/21 06:30:11;;;;;;;16.58;2.38;;;16.10;95.20;;;;;;7387063;19;20034;-79
2023/10/21 06:32:41;;;;;;;18.73;2.60;;;16.20;95.30;;;;;;7385576;19;20006;-79
2023/10/21 06:35:10;;;;;;;25.65;3.53;;;16.20;95.10;;;;;;7407867;19;20007;-79
2023/10/21 06:37:39;;;;;;;18.90;2.75;;;15.90;95.20;;;;;;7386043;19;20020;-79
2023/10/21 06:40:09;;;;;;;15.10;2.03;;;16.00;95.70;;;;;;7385008;19;20011;-80
2023/10/21 06:42:41;;;;;;;12.48;2.22;;;15.90;95.30;;;;;;7386195;19;20003;-80
2023/10/21 06:45:11;;;;;;;23.65;2.55;;;15.80;95.40;;;;;;7385521;19;20263;-80
2023/10/21 06:47:40;;;;;;;31.33;2.70;;;16.00;95.40;;;;;;7383987;19;20347;-80
2023/10/21 06:50:11;;;;;;;14.05;2.25;;;15.90;95.20;;;;;;7405412;19;20538;-79
2023/10/21 06:52:40;;;;;;;13.20;2.50;;;15.90;95.10;;;;;;7386203;19;20017;-79
2023/10/21 06:55:10;;;;;;;18.30;2.50;;;15.90;95.20;;;;;;7391153;19;20028;-79
2023/10/21 06:57:42;;;;;;;12.13;2.15;;;15.80;95.10;;;;;;7391027;19;20006;-79
2023/10/21 07:00:12;;;;;;;;;;;15.90;95.30;;;;;;7391685;19;20006;-79
2023/10/21 07:02:43;;;;;;;18.95;2.63;;;15.90;95.20;;;;;;7393856;19;19921;-79
2023/10/21 07:05:12;;;;;;;14.77;2.88;;;15.90;95.00;;;;;;7412455;19;20014;-78
2023/10/21 07:07:41;;;;;;;20.33;2.60;;;15.80;95.20;;;;;;7392990;19;20003;-80
2023/10/21 07:10:12;;;;;;;14.45;2.40;;;15.80;95.30;;;;;;7391274;19;20011;-79
2023/10/21 07:12:43;;;;;;;23.70;2.90;;;15.70;95.30;;;;;;7391258;19;20014;-80
2023/10/21 07:15:12;;;;;;;15.93;2.50;;;15.80;95.40;;;;;;7390133;19;20007;-80
2023/10/21 07:17:41;;;;;;;22.25;3.42;;;16.00;95.20;;;;;;7389315;19;20007;-79
2023/10/21 07:20:11;;;;;;;17.98;2.42;;;16.20;95.00;;;;;;7410455;19;20259;-79
2023/10/21 07:22:40;;;;;;;17.33;2.90;;;16.20;94.80;;;;;;7392527;19;20049;-78
2023/10/21 07:25:10;;;;;;;22.85;3.03;;;16.00;94.60;;;;;;7392738;19;20604;-79
2023/10/21 07:27:38;;;;;;;15.73;2.38;;;15.90;94.90;;;;;;7389955;19;20285;-79
2023/10/21 07:30:11;;;;;;;27.85;3.40;;;15.80;94.90;;;;;;7393561;19;20034;-79
2023/10/21 07:32:40;;;;;;;14.25;2.65;;;15.90;95.10;;;;;;7390744;19;20011;-79
2023/10/21 07:35:11;;;;;;;20.02;2.25;;;16.20;95.00;;;;;;7412068;19;20038;-79
2023/10/21 07:37:40;;;;;;;;;;;16.20;94.50;;;;;;7391097;19;20030;-79
2023/10/21 07:40:10;;;;;;;14.23;2.65;;;16.20;94.50;;;;;;7390565;19;19931;-79
2023/10/21 07:42:40;;;;;;;29.42;3.30;;;16.20;94.50;;;;;;7393060;19;20030;-79
2023/10/21 07:45:14;;;;;;;16.25;2.70;;;16.20;94.30;;;;;;7392449;19;20002;-79
2023/10/21 07:47:43;;;;;;;10.68;2.42;;;16.10;94.80;;;;;;7394943;19;20005;-79
2023/10/21 07:50:13;;;;;;;21.42;3.03;;;16.20;94.60;;;;;;7408074;19;20245;-79
2023/10/21 07:52:43;;;;;;;15.07;2.65;;;16.10;94.50;;;;;;7389365;19;20010;-78
2023/10/21 07:55:14;;;;;;;26.98;3.08;;;16.10;94.30;;;;;;7386600;19;20032;-79
2023/10/21 07:57:43;;;;;;;24.02;3.08;;;16.40;94.30;;;;;;7390395;19;20069;-79
2023/10/21 08:00:16;;;;;;;24.05;2.50;;;16.30;94.10;;;;;;7390780;19;20030;-79
2023/10/21 08:02:45;;;;;;;17.45;3.03;;;16.30;93.90;;;;;;7387922;19;20034;-80
2023/10/21 08:05:15;;;;;;;22.33;2.90;;;16.30;94.30;;;;;;7405312;19;19999;-80
2023/10/21 08:07:44;;;;;;;16.52;2.60;;;16.10;94.20;;;;;;7391125;19;20010;-79
2023/10/21 08:10:13;;;;;;;19.73;2.72;;;16.20;94.20;;;;;;7392137;19;20007;-79
2023/10/21 08:12:42;;;;;;;18.98;3.25;;;16.00;94.50;;;;;;7396233;19;20010;-80
2023/10/21 08:15:15;;;;;;;15.20;2.42;;;16.10;94.60;;;;;;7407158;19;20010;-80
2023/10/21 08:17:44;;;;;;;15.52;2.63;;;16.20;94.60;;;;;;7407790;19;19999;-80
2023/10/21 08:20:13;;;;;;;17.73;2.75;;;16.50;94.50;;;;;;7431946;19;20026;-81
2023/10/21 08:22:42;;;;;;;15.98;3.45;;;16.60;93.90;;;;;;7410010;19;20003;-80
2023/10/21 08:25:11;;;;;;;25.77;3.08;;;16.70;94.00;;;;;;7395558;19;20093;-79
2023/10/21 08:27:40;;;;;;;17.58;2.67;;;16.60;93.90;;;;;;7390129;19;20013;-82
2023/10/21 08:30:11;;;;;;;14.90;2.67;;;16.70;93.80;;;;;;7389174;19;20006;-79
2023/10/21 08:32:44;;;;;;;;;;;16.70;93.80;;;;;;7389562;19;20007;-79
2023/10/21 08:35:13;;;;;;;15.30;3.38;;;16.70;93.50;;;;;;7410721;19;19934;-80
2023/10/21 08:37:42;;;;;;;19.52;2.72;;;16.60;93.40;;;;;;7391980;19;20476;-80
2023/10/21 08:40:12;;;;;;;12.32;2.60;;;16.60;93.80;;;;;;7387754;19;20003;-81
2023/10/21 08:42:42;;;;;;;20.73;2.92;;;16.30;94.10;;;;;;7390263;19;20023;-80
2023/10/21 08:45:12;;;;;;;25.20;2.75;;;16.30;94.00;;;;;;7391001;19;20408;-80
2023/10/21 08:47:45;;;;;;;11.85;2.05;;;16.60;94.00;;;;;;7388275;19;20014;-80
2023/10/21 08:50:18;;;;;;;20.45;2.33;;;16.70;93.80;;;;;;7411351;19;20380;-79
2023/10/21 08:52:52;;;;;;;20.90;2.50;;;16.70;93.50;;;;;;7389312;19;20006;-79
2023/10/21 08:55:22;;;;;;;13.30;2.40;;;16.50;93.80;;;;;;7390932;19;20010;-80
2023/10/21 08:57:51;;;;;;;20.00;2.90;;;16.40;93.30;;;;;;7392681;19;20003;-80
2023/10/21 09:00:20;;;;;;;22.67;2.92;;;16.10;93.80;;;;;;7391970;19;20023;-81
2023/10/21 09:02:52;;;;;;;17.40;2.22;;;16.00;94.10;;;;;;7386735;19;20006;-81
2023/10/21 09:05:20;;;;;;;;;;;15.90;94.40;;;;;;7408370;19;20013;-80
2023/10/21 09:07:50;;;;;;;20.42;2.75;;;16.10;94.00;;;;;;7386961;19;19911;-80
2023/10/21 09:10:20;;;;;;;21.08;2.60;;;16.00;94.20;;;;;;7387536;19;20356;-80
2023/10/21 09:12:49;;;;;;;13.32;2.45;;;16.30;94.20;;;;;;7387835;19;20015;-80
2023/10/21 09:15:19;;;;;;;24.27;3.08;;;16.40;94.10;;;;;;7384525;19;20007;-79
2023/10/21 09:17:56;;;;;;;18.52;2.50;;;16.10;94.10;;;;;;7385975;19;20006;-80
2023/10/21 09:20:25;;;;;;;25.75;2.88;;;16.30;94.00;;;;;;7409536;19;20011;-80
2023/10/21 09:22:55;;;;;;;18.05;2.67;;;16.50;93.70;;;;;;7386583;19;20020;-80
2023/10/21 09:25:25;;;;;;;11.98;2.30;;;16.30;93.90;;;;;;7385872;19;20011;-79
2023/10/21 09:27:57;;;;;;;19.00;2.20;;;16.20;93.70;;;;;;7383415;19;20006;-80
2023/10/21 09:30:27;;;;;;;17.05;2.95;;;16.00;94.30;;;;;;7383118;19;20006;-80
2023/10/21 09:33:09;;;;;;;20.95;3.03;;;16.20;94.00;;;;;;7380845;19;20003;-79
2023/10/21 09:35:38;;;;;;;20.48;2.88;;;16.20;93.90;;;;;;7383119;19;20024;-80
2023/10/21 09:38:18;;;;;;;17.17;2.47;;;16.50;94.00;;;;;;7408496;19;20010;-80
2023/10/21 09:40:49;;;;;;;14.15;2.90;;;16.20;93.80;;;;;;7388906;19;20243;-78
2023/10/21 09:43:21;;;;;;;19.35;2.72;;;16.50;94.10;;;;;;7389185;19;20010;-80
2023/10/21 09:45:56;;;;;;;18.88;2.90;;;16.60;93.70;;;;;;7385717;19;20006;-79
2023/10/21 09:48:30;;;;;;;22.23;2.88;;;16.90;93.60;;;;;;7385960;19;20031;-80
2023/10/21 09:51:03;;;;;;;11.20;2.22;;;17.10;93.00;;;;;;7385039;19;20007;-80
2023/10/21 09:53:43;;;;;;;10.88;2.33;;;16.80;92.60;;;;;;7391045;19;19999;-81
2023/10/21 09:56:15;;;;;;;23.13;2.45;;;16.50;93.40;;;;;;7405658;19;20301;-79
2023/10/21 09:58:45;;;;;;;18.73;2.35;;;16.50;93.50;;;;;;7385776;19;19999;-79
2023/10/21 10:01:18;;;;;;;14.00;2.30;;;16.50;93.20;;;;;;7384887;19;20010;-79
2023/10/21 10:03:53;;;;;;;16.05;3.03;;;16.60;93.30;;;;;;7384507;19;20106;-79
2023/10/21 10:06:23;;;;;;;15.80;2.88;;;16.90;92.90;;;;;;7384709;19;20013;-80
2023/10/21 10:09:10;;;;;;;21.83;2.55;;;16.80;92.80;;;;;;7385041;19;20037;-79
2023/10/21 10:11:42;;;;;;;24.15;2.38;;;16.90;92.60;;;;;;7382325;19;20003;-80
2023/10/21 10:14:11;;;;;;;23.52;2.40;;;16.90;92.70;;;;;;7405845;19;20007;-80
2023/10/21 10:16:45;;;;;;;17.17;2.53;;;17.00;92.70;;;;;;7383696;19;20003;-80
2023/10/21 10:19:37;;;;;;;15.05;2.40;;;17.00;92.70;;;;;;7386509;19;20344;-79
2023/10/21 10:22:20;;;;;;;22.08;2.40;;;16.90;92.70;;;;;;7386298;19;20003;-79
2023/10/21 10:25:10;;;;;;;29.20;2.88;;;16.90;92.90;;;;;;7385515;19;20220;-80
2023/10/21 10:27:40;;;;;;;22.45;3.15;;;17.00;92.90;;;;;;7382125;19;20002;-79
2023/10/21 10:30:16;;;;;;;13.27;2.47;;;17.10;92.50;;;;;;7386357;19;20015;-79
2023/10/21 10:32:47;;;;;;;10.55;1.83;;;17.20;92.50;;;;;;7386890;19;20024;-80
2023/10/21 10:35:37;;;;;;;15.43;2.70;;;17.00;92.60;;;;;;7408001;19;20002;-81
2023/10/21 10:38:20;;;;;;;17.98;2.22;;;16.90;92.70;;;;;;7391531;19;20011;-81
2023/10/21 10:40:49;;;;;;;18.48;2.65;;;17.10;92.40;;;;;;7387857;19;20003;-80
2023/10/21 10:43:20;;;;;;;14.00;2.28;;;17.30;92.50;;;;;;7387222;19;20006;-81
2023/10/21 10:45:51;;;;;;;16.52;2.40;;;17.20;92.40;;;;;;7388693;19;20002;-79
2023/10/21 10:48:21;;;;;;;12.38;2.47;;;16.90;92.70;;;;;;7385608;19;20011;-80
2023/10/21 10:51:00;;;;;;;16.25;2.10;;;16.90;92.90;;;;;;7382906;19;20754;-79
2023/10/21 10:53:29;;;;;;;13.98;1.90;;;17.00;93.00;;;;;;7406067;19;20010;-80
2023/10/21 10:55:58;;;;;;;15.63;2.20;;;16.80;92.90;;;;;;7381055;19;20006;-80
2023/10/21 10:58:28;;;;;;;18.55;2.33;;;16.90;93.00;;;;;;7379415;19;20010;-80
2023/10/21 11:00:58;;;;;;;8.40;1.70;;;17.10;92.70;;;;;;7379116;19;19999;-80
2023/10/21 11:03:28;;;;;;;15.48;1.95;;;17.20;92.60;;;;;;7378957;19;19999;-78
2023/10/21 11:06:00;;;;;;;26.85;2.88;;;17.10;92.30;;;;;;7380087;19;20066;-80
2023/10/21 11:08:31;;;;;;;5.70;1.50;;;17.00;92.00;;;;;;7401380;19;20006;-78
2023/10/21 11:11:10;;;;;;;11.93;2.03;;;17.00;92.30;;;;;;7379108;19;20361;-79
2023/10/21 11:13:39;;;;;;;15.48;2.42;;;17.00;92.40;;;;;;7378615;19;20063;-80
2023/10/21 11:16:11;;;;;;;22.60;2.78;;;17.20;92.30;;;;;;7378420;19;20219;-79
2023/10/21 11:18:41;;;;;;;9.05;1.88;;;17.00;92.20;;;;;;7378234;19;20011;-80
2023/10/21 11:21:12;;;;;;;11.50;2.10;;;17.00;92.40;;;;;;7379329;19;20003;-80
2023/10/21 11:23:41;;;;;;;;;;;17.10;92.40;;;;;;7378930;19;20011;-80
2023/10/21 11:26:11;;;;;;;13.60;2.30;;;17.20;92.20;;;;;;7404913;19;19914;-81
2023/10/21 11:28:40;;;;;;;18.10;2.00;;;17.20;92.20;;;;;;7381004;19;20007;-79
2023/10/21 11:31:12;;;;;;;19.20;2.20;;;17.20;92.20;;;;;;7380871;19;20003;-80
2023/10/21 11:33:40;;;;;;;;;;;17.20;92.20;;;;;;7382689;19;20013;-79
2023/10/21 11:36:12;;;;;;;9.73;2.15;;;17.00;92.50;;;;;;7380860;19;19934;-80
2023/10/21 11:38:41;;;;;;;;;;;17.00;92.20;;;;;;7385870;19;20011;-80
2023/10/21 11:41:17;;;;;;;9.90;2.10;;;16.90;92.40;;;;;;7407188;19;19918;-79
2023/10/21 11:44:06;;;;;;;12.68;1.98;;;17.20;92.20;;;;;;7389780;19;20042;-81
2023/10/21 11:46:48;;;;;;;9.88;2.13;;;17.10;92.10;;;;;;7390767;19;20034;-80
2023/10/21 11:49:30;;;;;;;13.27;1.98;;;17.40;92.30;;;;;;7394602;19;20030;-81
2023/10/21 11:52:10;;;;;;;11.07;2.13;;;17.60;92.10;;;;;;7394034;19;20054;-80
2023/10/21 12:31:26;;;;;;;12.73;2.30;;;17.90;91.00;;;;;;7387994;19;20017;-80
2023/10/21 12:56:41;;;;;;;18.58;2.00;;;17.60;90.90;;;;;;6326092;19;7299847;-80
2023/10/21 12:59:16;;;;;;;12.48;1.88;;;17.20;91.50;;;;;;7444721;19;20011;-80
2023/10/21 13:33:15;;;;;;;;;;;;;;;;;;;;;
2023/10/21 14:04:39;;;;;;;10.97;2.30;;;17.20;94.80;;;;;;5988175;19;6687343;-81
2023/10/21 14:44:21;;;;;;;17.73;3.20;;;16.80;95.80;;;;;;7444274;19;20007;-82
2023/10/21 15:06:51;;;;;;;13.60;2.95;;;17.00;95.40;;;;;;7445343;19;20047;-82
2023/10/21 15:09:32;;;;;;;13.77;3.45;;;17.00;95.50;;;;;;7421231;19;20046;-82
2023/10/21 15:12:23;;;;;;;;;;;;;;;;;;;;;
2023/10/21 15:15:11;;;;;;;10.50;2.40;;;17.20;95.40;;;;;;7423016;19;20024;-81
2023/10/21 15:17:48;;;;;;;12.13;2.28;;;17.20;95.10;;;;;;7441296;19;20030;-81
2023/10/21 15:20:20;;;;;;;16.40;2.45;;;16.80;95.40;;;;;;7421904;19;20351;-80
2023/10/21 15:22:56;;;;;;;9.85;2.40;;;16.90;95.60;;;;;;7443005;19;20010;-80
2023/10/21 15:25:41;;;;;;;17.08;4.07;;;17.00;95.40;;;;;;7423207;19;20013;-80
2023/10/21 15:28:17;;;;;;;11.75;2.65;;;17.00;95.20;;;;;;7431192;19;20010;-80
2023/10/21 15:30:58;;;;;;;11.02;2.10;;;17.10;94.90;;;;;;7438412;19;20010;-80
2023/10/21 15:34:07;;;;;;;12.80;2.75;;;16.90;95.10;;;;;;7438989;19;20010;-80
2023/10/21 15:36:57;;;;;;;16.52;3.15;;;16.80;95.30;;;;;;7440629;19;20035;-81
2023/10/21 15:39:42;;;;;;;8.68;2.50;;;16.90;95.20;;;;;;7426317;19;20416;-81
2023/10/21 15:42:19;;;;;;;25.00;2.25;;;17.10;95.10;;;;;;7420820;19;20365;-81
2023/10/21 15:47:46;;;;;;;13.48;2.50;;;17.10;95.40;;;;;;7418436;19;20014;-81
2023/10/21 15:57:37;;;;;;;15.48;3.05;;;16.50;95.90;;;;;;7315868;19;2004407;-80
2023/10/21 16:03:34;;;;;;;12.20;2.83;;;16.80;95.80;;;;;;7388333;19;20011;-81
2023/10/21 16:19:38;;;;;;;7.68;1.85;;;16.60;96.30;;;;;;7423736;19;20347;-81
2023/10/21 16:22:10;;;;;;;11.80;2.35;;;16.00;97.50;;;;;;7422854;19;20458;-81
2023/10/21 16:24:38;;;;;;;15.30;2.15;;;16.30;97.60;;;;;;7423333;19;20356;-81
2023/10/21 16:27:10;;;;;;;15.23;2.00;;;16.00;97.50;;;;;;7424877;19;20093;-81
2023/10/21 16:29:38;;;;;;;;;;;16.00;97.70;;;;;;7424927;19;20122;-80
2023/10/21 16:32:08;;;;;;;12.73;2.08;;;16.20;97.60;;;;;;7446024;19;19946;-80
2023/10/21 16:34:39;;;;;;;11.98;2.08;;;16.30;97.10;;;;;;7423186;19;20034;-80
2023/10/21 16:37:08;;;;;;;16.38;2.30;;;16.00;97.40;;;;;;7420394;19;20003;-80
2023/10/21 16:39:37;;;;;;;12.98;2.33;;;16.00;97.40;;;;;;7421355;19;20292;-80
2023/10/21 16:42:07;;;;;;;10.35;2.08;;;16.00;97.60;;;;;;7421767;19;20077;-80
2023/10/21 16:44:36;;;;;;;13.95;2.40;;;16.20;97.40;;;;;;7421387;19;20258;-81
2023/10/21 16:47:05;;;;;;;18.17;2.40;;;16.10;97.40;;;;;;7445754;19;20023;-80